Latest Weather Observations for Mount Gellibrand

IDV60801

Issued at 1:32 pm EST Saturday 2 July 2016 (issued every 30 minutes, with the page automatically refreshed every 10 minutes)

About weather observations | Map of weather stations | Latest weather observations for VIC | Other Formats
Station Details ID: 090035 Name: MOUNT GELLIBRAND Lat: -38.23 Lon: 143.79 Height: 261.0 m
Data from the previous 72 hours. | See also: Recent months at Mount Gellibrand
Date/Time
EST
Temp
°C
App
Temp
°C
Dew
Point
°C
Rel
Hum
%
Delta-T
°C
Wind Press
QNH
hPa
Press
MSL
hPa
Rain since
9am
mm
Dir  Spd
km/h
Gust
km/h
Spd
kts
Gust
kts
02/01:30pm 11.9 4.9 8.4 79 1.7 W 35 52 19 28 1023.1 1023.6 0.0
02/01:00pm 12.1 4.2 9.5 84 1.3 W 41 48 22 26 1023.3 1023.8 0.0
02/12:30pm 11.5 3.5 10.6 94 0.5 W 43 50 23 27 1023.6 1024.1 0.0
02/12:00pm 11.3 3.8 10.7 96 0.3 WNW 41 50 22 27 1024.0 1024.4 0.0
02/11:30am 11.4 4.4 11.4 100 0.0 WNW 39 46 21 25 1024.2 1024.6 0.0
02/11:00am 11.1 3.7 11.1 100 0.0 WNW 41 50 22 27 1024.3 1024.7 0.0
02/10:30am 10.3 3.8 10.3 100 0.0 WNW 35 43 19 23 1024.3 1024.7 0.0
02/10:00am 9.5 2.8 9.5 100 0.0 WNW 35 41 19 22 1024.1 1024.5 0.0
02/09:30am 8.9 2.4 8.9 100 0.0 WNW 33 44 18 24 1024.3 1024.7 0.0
02/09:00am 8.5 2.1 8.5 100 0.0 WNW 32 43 17 23 1023.9 1024.3 1.0
02/08:30am 8.1 2.0 8.1 100 0.0 WNW 30 37 16 20 1023.4 1023.9 1.0
02/08:00am 8.1 1.6 8.1 100 0.0 WNW 32 46 17 25 1023.4 1023.9 1.0
02/07:30am 8.1 1.4 8.1 100 0.0 WNW 33 39 18 21 1023.0 1023.5 0.8
02/07:00am 7.9 1.7 7.9 100 0.0 WNW 30 35 16 19 1022.6 1023.1 0.8
02/06:30am 8.3 1.6 8.3 100 0.0 WNW 33 39 18 21 1022.4 1022.9 0.8
02/06:00am 8.4 2.0 8.4 100 0.0 WNW 32 41 17 22 1022.2 1022.7 0.8
02/05:30am 8.6 2.0 8.6 100 0.0 WNW 33 41 18 22 1021.7 1022.1 0.8
02/05:00am 8.8 1.9 8.8 100 0.0 WNW 35 41 19 22 1021.6 1022.0 0.8
02/04:30am 8.9 2.0 8.9 100 0.0 WNW 35 43 19 23 1021.4 1021.8 0.6
02/04:00am 9.1 1.5 9.1 100 0.0 WNW 39 44 21 24 1021.6 1022.0 0.6
02/03:30am 9.0 1.8 9.0 100 0.0 WNW 37 44 20 24 1021.3 1021.7 0.6
02/03:00am 9.1 1.5 9.1 100 0.0 WNW 39 44 21 24 1021.3 1021.7 0.4
02/02:30am 8.9 2.0 8.9 100 0.0 WNW 35 41 19 22 1021.3 1021.7 0.4
02/02:00am 9.0 2.7 9.0 100 0.0 NW 32 39 17 21 1021.3 1021.7 0.4
02/01:30am 9.2 2.8 9.2 100 0.0 NW 33 41 18 22 1021.5 1021.9 0.4
02/01:00am 9.2 2.4 9.2 100 0.0 WNW 35 44 19 24 1021.5 1021.9 0.4
02/12:30am 8.9 2.6 8.9 100 0.0 NW 32 37 17 20 1021.7 1022.1 0.4
02/12:00am 8.9 2.4 8.9 100 0.0 NW 33 43 18 23 1021.6 1022.0 0.4
 
Date/Time
EST
Temp
°C
App
Temp
°C
Dew
Point
°C
Rel
Hum
%
Delta-T
°C
Wind Press
QNH
hPa
Press
MSL
hPa
Rain since
9am
mm
Dir  Spd
km/h
Gust
km/h
Spd
kts
Gust
kts
01/11:30pm 9.0 2.5 9.0 100 0.0 WNW 33 41 18 22 1021.7 1022.1 0.4
01/11:00pm 9.0 1.4 9.0 100 0.0 NW 39 46 21 25 1021.3 1021.7 0.4
01/10:30pm 9.0 1.8 9.0 100 0.0 NW 37 48 20 26 1021.2 1021.6 0.4
01/10:00pm 8.8 2.3 8.8 100 0.0 NW 33 41 18 22 1021.4 1021.8 0.4
01/09:30pm 8.9 1.3 8.9 100 0.0 WNW 39 46 21 25 1021.4 1021.8 0.4
01/09:00pm 8.8 2.3 8.8 100 0.0 NW 33 39 18 21 1021.5 1021.9 0.4
01/08:30pm 8.6 2.0 8.6 100 0.0 NW 33 39 18 21 1021.5 1021.9 0.4
01/08:00pm 8.4 2.3 8.4 100 0.0 NW 30 35 16 19 1021.4 1021.8 0.4
01/07:30pm 8.5 3.6 8.5 100 0.0 NW 24 32 13 17 1021.2 1021.6 0.4
01/07:00pm 8.8 3.6 8.8 100 0.0 WNW 26 32 14 17 1021.3 1021.7 0.4
01/06:30pm 8.7 2.3 8.7 100 0.0 WNW 32 37 17 20 1021.1 1021.5 0.4
01/06:00pm 8.9 3.0 8.9 100 0.0 WNW 30 35 16 19 1020.7 1021.1 0.4
01/05:30pm 8.9 2.5 8.6 98 0.1 WNW 32 35 17 19 1020.5 1020.9 0.4
01/05:00pm 9.5 4.8 9.2 98 0.1 WNW 24 33 13 18 1020.4 1020.8 0.4
01/04:30pm 9.4 4.7 9.1 98 0.1 W 24 30 13 16 1020.3 1020.7 0.4
01/04:00pm 9.5 3.9 8.7 95 0.4 W 28 32 15 17 1020.1 1020.5 0.4
01/03:30pm 10.2 3.2 8.6 90 0.8 WNW 35 43 19 23 1019.7 1020.2 0.4
01/03:00pm 9.8 2.3 8.1 89 0.8 WNW 37 43 20 23 1019.6 1020.1 0.4
01/02:30pm 10.0 3.4 8.4 90 0.8 WNW 33 43 18 23 1019.4 1019.9 0.4
01/02:00pm 10.1 2.5 9.0 93 0.5 WNW 39 48 21 26 1019.3 1019.8 0.4
01/01:30pm 10.0 2.5 8.1 88 0.9 W 37 48 20 26 1019.3 1019.8 0.4
01/01:00pm 9.9 5.2 9.3 96 0.3 WNW 24 32 13 17 1019.4 1019.9 0.4
01/12:30pm 8.9 3.8 7.7 92 0.6 W 24 32 13 17 1019.7 1020.2 0.0
01/12:00pm 9.0 4.3 7.6 91 0.7 WSW 22 32 12 17 1020.1 1020.5 0.0
01/11:30am 9.2 3.6 7.0 86 1.0 WNW 26 33 14 18 1020.1 1020.5 0.0
01/11:00am 9.6 4.3 7.0 84 1.2 W 24 28 13 15 1020.1 1020.5 0.0
01/10:30am 8.5 3.2 6.8 89 0.8 WNW 24 32 13 17 1020.1 1020.5 0.0
01/10:00am 8.1 3.4 6.2 88 0.9 W 20 24 11 13 1019.6 1020.1 0.0
01/09:30am 8.1 2.8 6.6 90 0.7 WSW 24 28 13 15 1019.1 1019.5 0.0
01/09:00am 7.3 1.7 7.3 100 0.0 WSW 26 33 14 18 1018.6 1018.9 6.4
01/08:30am 6.6 -0.5 6.6 100 0.0 WSW 33 37 18 20 1018.2 1018.5 6.4
01/08:00am 6.5 -0.6 6.5 100 0.0 WSW 33 39 18 21 1017.5 1017.8 6.4
01/07:30am 7.0 1.0 7.0 100 0.0 WSW 28 30 15 16 1017.2 1017.5 6.4
01/07:00am 7.1 0.2 7.1 100 0.0 WSW 33 39 18 21 1016.6 1016.9 6.4
01/06:30am 7.5 0.3 7.5 100 0.0 WSW 35 43 19 23 1016.1 1016.4 6.4
01/06:00am 7.4 0.5 7.4 100 0.0 WSW 33 37 18 20 1015.6 1015.9 6.4
01/05:30am 6.9 2.6 6.9 100 0.0 W 19 24 10 13 1015.2 1015.5 6.4
01/05:00am 6.6 1.6 6.6 100 0.0 W 22 26 12 14 1014.6 1014.9 6.4
01/04:30am 6.6 0.1 6.6 100 0.0 WSW 30 33 16 18 1014.0 1014.3 6.4
01/04:00am 7.0 0.2 7.0 100 0.0 WSW 32 39 17 21 1013.4 1013.7 6.4
01/03:30am 6.7 0.2 6.7 100 0.0 WSW 30 37 16 20 1012.9 1013.2 6.4
01/03:00am 6.0 0.5 6.0 100 0.0 W 24 30 13 16 1012.8 1013.1 6.4
01/02:30am 6.1 -0.1 6.1 100 0.0 WSW 28 32 15 17 1012.3 1012.5 6.4
01/02:00am 6.2 0.0 6.2 100 0.0 WSW 28 33 15 18 1011.7 1012.0 6.4
01/01:30am 5.8 -0.9 5.8 100 0.0 WSW 30 33 16 18 1011.0 1011.3 6.4
01/01:00am 5.5 -0.1 5.5 100 0.0 WSW 24 24 13 13 1010.3 1010.6 6.4
01/12:30am 5.6 -0.3 5.6 100 0.0 WSW 26 30 14 16 1009.7 1010.0 6.4
01/12:00am 5.5 0.3 5.5 100 0.0 SW 22 26 12 14 1009.2 1009.4 6.4
 
Date/Time
EST
Temp
°C
App
Temp
°C
Dew
Point
°C
Rel
Hum
%
Delta-T
°C
Wind Press
QNH
hPa
Press
MSL
hPa
Rain since
9am
mm
Dir  Spd
km/h
Gust
km/h
Spd
kts
Gust
kts
30/11:30pm 6.1 0.6 6.1 100 0.0 SW 24 32 13 17 1008.5 1008.7 6.4
30/11:00pm 6.0 0.1 6.0 100 0.0 WSW 26 30 14 16 1007.7 1008.0 6.4
30/10:30pm 6.1 0.6 6.0 99 0.0 WNW 24 30 13 16 1007.1 1007.4 6.4
30/10:00pm 5.9 -1.7 5.6 98 0.1 WNW 35 41 19 22 1006.5 1006.8 6.4
30/09:30pm 5.8 -2.7 5.2 96 0.3 NW 39 52 21 28 1005.6 1005.8 6.4
30/09:13pm 5.8 -2.8 4.9 94 0.4 NW 39 57 21 31 1005.4 1005.6 6.4
30/09:00pm 5.7 -3.8 5.0 95 0.3 NW 44 57 24 31 1005.1 1005.3 6.4
30/08:30pm 5.6 -2.6 4.9 95 0.3 NW 37 46 20 25 1005.6 1005.8 5.8
30/08:00pm 5.5 -3.2 4.3 92 0.5 NW 39 52 21 28 1005.6 1005.8 5.4
30/07:30pm 5.6 -3.5 3.9 89 0.7 NW 41 48 22 26 1005.2 1005.4 5.0
30/07:00pm 5.9 -3.8 4.1 88 0.8 NW 44 52 24 28 1005.0 1005.2 5.0
30/06:30pm 6.1 -2.9 4.6 90 0.7 NW 41 50 22 27 1004.8 1005.0 5.0
30/06:00pm 6.0 -1.4 4.8 92 0.5 NW 33 39 18 21 1005.0 1005.2 5.0
30/05:30pm 6.8 -0.9 5.4 91 0.6 WNW 35 43 19 23 1004.7 1004.9 5.0
30/05:00pm 7.3 -0.6 6.1 92 0.6 WNW 37 46 20 25 1004.6 1004.8 5.0
30/04:30pm 7.5 0.1 6.8 95 0.3 NW 35 43 19 23 1004.3 1004.5 5.0
30/04:00pm 7.2 -0.2 6.9 98 0.1 NW 35 43 19 23 1004.3 1004.5 5.0
30/03:30pm 7.0 0.2 6.9 99 0.0 NW 32 39 17 21 1004.1 1004.3 5.0
30/03:27pm 7.0 0.5 6.7 98 0.1 NW 30 37 16 20 1004.2 1004.4 5.0
30/03:00pm 6.8 -2.8 6.2 96 0.3 WNW 46 57 25 31 1004.3 1004.5 4.8
30/02:54pm 6.9 -3.4 6.5 97 0.2 WNW 50 61 27 33 1004.2 1004.4 4.8
30/02:41pm 7.4 -4.1 7.1 98 0.1 NW 57 89 31 48 1003.5 1003.8 4.6
30/02:39pm 7.7 -3.5 7.6 99 0.0 NNW 56 89 30 48 1003.0 1003.3 4.4
30/02:38pm 7.9 -2.5 7.8 99 0.0 NNW 52 89 28 48 1002.8 1003.1 4.4
30/02:30pm 8.0 -1.6 7.9 99 0.0 NNW 48 57 26 31 1002.9 1003.2 3.6
30/02:00pm 8.7 -1.0 7.5 92 0.6 NNW 48 59 26 32 1003.0 1003.3 3.2
30/01:30pm 9.0 -2.2 7.5 90 0.7 NNW 56 67 30 36 1003.0 1003.3 3.2
30/01:00pm 8.5 -1.6 7.3 92 0.6 NNW 50 61 27 33 1003.6 1003.9 3.2
30/12:30pm 7.8 -2.8 6.9 94 0.4 NNW 52 61 28 33 1004.4 1004.6 3.2
30/12:00pm 7.0 -3.7 6.6 97 0.2 NNW 52 63 28 34 1005.1 1005.3 3.2
30/11:30am 7.2 -4.2 6.8 97 0.2 NNW 56 67 30 36 1005.6 1005.8 2.6
30/11:00am 7.9 -2.8 6.5 91 0.7 NNW 52 63 28 34 1006.1 1006.4 2.0
30/10:58am 7.9 -3.2 6.4 90 0.7 NNW 54 72 29 39 1006.1 1006.4 2.0
30/10:30am 8.1 -4.4 6.2 88 0.9 NNW 61 74 33 40 1005.9 1006.1 1.8
30/10:00am 7.1 -3.6 6.4 95 0.3 NNW 52 57 28 31 1006.7 1007.0 1.8
30/09:30am 7.2 -1.4 6.3 94 0.4 N 41 48 22 26 1007.2 1007.5 1.0
30/09:00am 7.0 -2.3 5.8 92 0.5 NNW 44 54 24 29 1007.2 1007.5 2.8
30/08:30am 6.8 -2.3 6.1 95 0.3 N 43 50 23 27 1007.5 1007.8 2.4
30/08:00am 6.5 -2.6 5.8 95 0.3 N 43 50 23 27 1007.7 1008.0 2.0
30/07:30am 6.8 -3.3 5.7 93 0.5 N 48 61 26 33 1007.7 1008.0 1.2
30/07:00am 6.7 -3.8 5.8 94 0.4 N 50 63 27 34 1007.9 1008.1 0.8
30/06:30am 6.9 -4.8 5.5 91 0.6 N 56 65 30 35 1007.9 1008.1 0.2
30/06:00am 7.0 -5.7 5.3 89 0.8 N 61 74 33 40 1007.7 1008.0 0.0
30/05:30am 7.6 -4.8 4.7 82 1.3 NNW 59 70 32 38 1008.0 1008.2 0.0
30/05:00am 7.4 -4.0 4.7 83 1.2 N 54 69 29 37 1009.0 1009.2 0.0
30/04:30am 7.5 -4.3 4.6 82 1.3 N 56 65 30 35 1009.4 1009.7 0.0
30/04:00am 7.7 -4.1 4.7 81 1.3 N 56 69 30 37 1009.9 1010.2 0.0
30/03:30am 7.9 -4.0 4.5 79 1.5 N 56 65 30 35 1010.1 1010.4 0.0
30/03:00am 8.0 -3.5 4.4 78 1.6 N 54 65 29 35 1010.7 1011.0 0.0
30/02:30am 8.2 -4.6 4.4 77 1.7 N 61 74 33 40 1010.7 1011.0 0.0
30/02:00am 8.1 -4.7 4.3 77 1.7 N 61 72 33 39 1011.3 1011.6 0.0
30/01:30am 8.3 -3.6 4.3 76 1.8 N 56 65 30 35 1012.4 1012.6 0.0
30/01:00am 8.4 -3.7 4.4 76 1.8 N 57 67 31 36 1012.8 1013.1 0.0
30/12:30am 8.5 -2.2 4.5 76 1.8 N 50 61 27 33 1013.6 1013.9 0.0
30/12:00am 8.7 -2.0 4.5 75 1.9 N 50 59 27 32 1014.5 1014.8 0.0
 
Date/Time
EST
Temp
°C
App
Temp
°C
Dew
Point
°C
Rel
Hum
%
Delta-T
°C
Wind Press
QNH
hPa
Press
MSL
hPa
Rain since
9am
mm
Dir  Spd
km/h
Gust
km/h
Spd
kts
Gust
kts
29/11:30pm 8.4 -0.2 4.8 78 1.6 N 39 52 21 28 1015.5 1015.8 0.0
29/11:00pm 8.6 -0.9 4.8 77 1.7 N 44 52 24 28 1016.1 1016.4 0.0
29/10:30pm 8.5 0.3 4.9 78 1.6 N 37 46 20 25 1016.7 1017.0 0.0
29/10:00pm 8.3 0.1 4.7 78 1.6 N 37 43 20 23 1017.1 1017.4 0.0
29/09:30pm 8.2 1.0 4.8 79 1.5 N 32 39 17 21 1017.4 1017.7 0.0
29/09:00pm 8.0 0.5 4.4 78 1.6 N 33 39 18 21 1017.8 1018.1 0.0
29/08:30pm 7.9 2.1 4.5 79 1.5 N 24 28 13 15 1018.1 1018.4 0.0
29/08:00pm 7.7 1.5 4.3 79 1.5 N 26 30 14 16 1018.3 1018.6 0.0
29/07:30pm 8.1 1.9 4.1 76 1.8 N 26 32 14 17 1018.4 1018.7 0.0
29/07:00pm 8.1 1.1 4.1 76 1.8 N 30 35 16 19 1018.4 1018.7 0.0
29/06:30pm 8.3 0.7 4.1 75 1.9 N 33 37 18 20 1018.6 1018.9 0.0
29/06:00pm 8.2 1.6 4.2 76 1.8 N 28 33 15 18 1019.0 1019.4 0.0
29/05:30pm 8.8 1.6 4.8 76 1.8 N 32 37 17 20 1019.2 1019.6 0.0
29/05:00pm 9.1 2.3 5.1 76 1.8 N 30 39 16 21 1019.6 1020.0 0.0
29/04:30pm 10.2 1.3 5.0 70 2.4 N 41 48 22 26 1019.5 1019.9 0.0
29/04:00pm 10.8 2.7 5.3 69 2.5 N 37 44 20 24 1020.1 1020.4 0.0
29/03:30pm 11.2 2.8 5.7 69 2.6 N 39 46 21 25 1020.4 1020.7 0.0
29/03:00pm 12.0 2.5 4.7 61 3.4 NNW 44 54 24 29 1020.5 1020.8 0.0
29/02:30pm 12.1 3.1 6.6 69 2.7 NNW 43 52 23 28 1021.0 1021.3 0.0
29/02:00pm 11.8 4.3 6.3 69 2.6 NNW 35 41 19 22 1021.5 1021.8 0.0

Other Formats:

Comma delimited format used in spreadsheet applications
http://www.bom.gov.au/fwo/IDV60801/IDV60801.95845.axf

JavaScript Object Notation format (JSON) in row-major order
http://www.bom.gov.au/fwo/IDV60801/IDV60801.95845.json